Time;durP1;ratioP1;P1;durP2;ratioP2;P2;SDS_P1;SDS_P2;PMS_P1;PMS_P2;Temp;Humidity;BMP_temperature;BMP_pressure;BME280_temperature;BME280_humidity;BME280_pressure;Samples;Min_cycle;Max_cycle;Signal;HPM_P1;HPM_P2
2021/08/22 00:01:43;;;;;;;;;;;18.30;99.90;;;;;;4982669;28;20097;-82
2021/08/22 00:04:09;;;;;;;;;;;18.30;99.90;;;;;;4967380;28;19921;-83
2021/08/22 00:06:35;;;;;;;;;;;18.30;99.90;;;;;;4939069;28;19953;-82
2021/08/22 00:09:01;;;;;;;;;;;18.30;99.90;;;;;;4960187;28;20412;-83
2021/08/22 00:11:37;;;;;;;;;;;18.30;99.90;;;;;;4966432;28;19949;-82
2021/08/22 00:14:25;;;;;;;;;;;18.30;99.90;;;;;;4965307;28;19922;-83
2021/08/22 00:16:50;;;;;;;;;;;18.20;99.90;;;;;;4962082;28;19930;-82
2021/08/22 00:19:16;;;;;;;;;;;18.30;99.90;;;;;;4943287;28;19923;-82
2021/08/22 00:21:42;;;;;;;;;;;18.20;99.90;;;;;;4941852;28;19928;-83
2021/08/22 00:24:08;;;;;;;;;;;18.20;99.90;;;;;;4944895;28;19926;-82
2021/08/22 00:26:33;;;;;;;;;;;18.20;99.90;;;;;;4960485;28;19927;-82
2021/08/22 00:28:59;;;;;;;;;;;18.20;99.90;;;;;;4961633;28;19926;-82
2021/08/22 00:31:25;;;;;;;;;;;18.20;99.90;;;;;;4941520;28;19926;-82
2021/08/22 00:33:51;;;;;;;;;;;18.20;99.90;;;;;;4958809;28;19933;-83
2021/08/22 00:36:16;;;;;;;;;;;18.20;99.90;;;;;;4958098;28;19930;-83
2021/08/22 00:38:44;;;;;;;;;;;18.20;99.90;;;;;;4931507;28;21069;-82
2021/08/22 00:41:09;;;;;;;;;;;18.20;99.90;;;;;;4960575;28;19933;-83
2021/08/22 00:43:35;;;;;;;;;;;18.20;99.90;;;;;;4958263;28;20382;-82
2021/08/22 00:46:01;;;;;;;;;;;18.20;99.90;;;;;;4957276;28;19949;-82
2021/08/22 00:48:30;;;;;;;;;;;18.20;99.90;;;;;;4943891;28;19985;-83
2021/08/22 00:50:59;;;;;;;;;;;18.20;99.90;;;;;;4958112;28;19989;-82
2021/08/22 00:53:25;;;;;;;;;;;18.20;99.90;;;;;;4960748;28;20388;-82
2021/08/22 00:55:52;;;;;;;;;;;18.20;99.90;;;;;;4972021;28;20037;-83
2021/08/22 00:58:18;;;;;;;;;;;18.20;99.90;;;;;;4956289;28;19926;-82
2021/08/22 01:00:46;;;;;;;;;;;18.20;99.90;;;;;;4971700;28;19936;-82
2021/08/22 01:03:14;;;;;;;;;;;18.20;99.90;;;;;;4956414;28;20672;-82
2021/08/22 01:05:52;;;;;;;;;;;18.20;99.90;;;;;;4968897;28;19922;-83
2021/08/22 01:08:25;;;;;;;;;;;18.20;99.90;;;;;;4969570;28;19962;-82
2021/08/22 01:11:11;;;;;;;;;;;18.20;99.90;;;;;;4974773;28;19926;-82
2021/08/22 01:13:39;;;;;;;;;;;18.20;99.90;;;;;;4953199;28;19973;-82
2021/08/22 01:16:06;;;;;;;;;;;18.30;99.90;;;;;;4971526;28;19942;-83
2021/08/22 01:18:34;;;;;;;;;;;18.30;99.90;;;;;;4958818;28;20329;-82
2021/08/22 01:21:18;;;;;;;;;;;18.30;99.90;;;;;;4954260;28;19950;-82
2021/08/22 01:23:46;;;;;;;;;;;18.40;99.90;;;;;;4969648;28;19930;-83
2021/08/22 01:26:14;;;;;;;;;;;18.40;99.90;;;;;;4966634;28;19944;-82
2021/08/22 01:28:40;;;;;;;;;;;18.30;99.90;;;;;;4963523;28;19965;-82
2021/08/22 01:31:10;;;;;;;;;;;18.40;99.90;;;;;;4983786;28;19922;-83
2021/08/22 01:33:37;;;;;;;;;;;18.30;99.90;;;;;;4963646;28;19926;-82
2021/08/22 01:36:03;;;;;;;;;;;18.30;99.90;;;;;;4964637;28;19980;-82
2021/08/22 01:38:29;;;;;;;;;;;18.30;99.90;;;;;;4968972;28;19926;-82
2021/08/22 01:40:56;;;;;;;;;;;18.20;99.90;;;;;;4971406;28;19922;-82
2021/08/22 01:43:22;;;;;;;;;;;18.10;99.90;;;;;;4970257;28;20416;-81
2021/08/22 01:45:52;;;;;;;;;;;18.00;99.90;;;;;;4970186;28;20049;-82
2021/08/22 01:48:18;;;;;;;;;;;17.90;99.90;;;;;;4969495;28;19926;-82
2021/08/22 01:50:44;;;;;;;;;;;17.80;99.90;;;;;;4970142;28;20437;-82
2021/08/22 01:53:12;;;;;;;;;;;17.80;99.90;;;;;;4970266;28;20028;-82
2021/08/22 01:55:38;;;;;;;;;;;17.70;99.90;;;;;;4968984;28;19962;-82
2021/08/22 01:58:04;;;;;;;;;;;17.70;99.90;;;;;;4958262;28;19964;-82
2021/08/22 02:00:30;;;;;;;;;;;17.60;99.90;;;;;;4959131;28;20386;-82
2021/08/22 02:03:08;;;;;;;;;;;17.60;99.90;;;;;;4951666;28;19977;-82
2021/08/22 02:05:36;;;;;;;;;;;17.60;99.90;;;;;;4971980;28;19926;-82
2021/08/22 02:08:04;;;;;;;;;;;17.60;99.90;;;;;;4970706;28;19972;-82
2021/08/22 02:10:31;;;;;;;;;;;17.60;99.90;;;;;;4971937;28;19981;-82
2021/08/22 02:12:59;;;;;;;;;;;17.60;99.90;;;;;;4970496;28;19933;-82
2021/08/22 02:15:27;;;;;;;;;;;17.50;99.90;;;;;;4970042;28;19933;-82
2021/08/22 02:17:53;;;;;;;;;;;17.50;99.90;;;;;;4970402;28;19964;-82
2021/08/22 02:20:19;;;;;;;;;;;17.50;99.90;;;;;;4968599;28;19957;-82
2021/08/22 02:22:46;;;;;;;;;;;17.50;99.90;;;;;;4963103;28;19934;-82
2021/08/22 02:25:12;;;;;;;;;;;17.50;99.90;;;;;;4967135;28;19968;-82
2021/08/22 02:27:38;;;;;;;;;;;17.50;99.90;;;;;;4958106;28;19977;-82
2021/08/22 02:30:05;;;;;;;;;;;17.50;99.90;;;;;;4952979;28;19988;-82
2021/08/22 02:32:30;;;;;;;;;;;17.50;99.90;;;;;;4958670;28;19934;-82
2021/08/22 02:34:56;;;;;;;;;;;17.50;99.90;;;;;;4956064;28;19932;-82
2021/08/22 02:37:22;;;;;;;;;;;17.50;99.90;;;;;;4970941;28;19922;-82
2021/08/22 02:39:48;;;;;;;;;;;17.40;99.90;;;;;;4962256;28;20284;-82
2021/08/22 02:42:15;;;;;;;;;;;17.40;99.90;;;;;;4969576;28;19932;-82
2021/08/22 02:44:42;;;;;;;;;;;17.40;99.90;;;;;;4969430;28;19926;-82
2021/08/22 02:47:08;;;;;;;;;;;17.40;99.90;;;;;;4972769;28;20459;-82
2021/08/22 02:49:33;;;;;;;;;;;17.40;99.90;;;;;;4972597;28;20004;-82
2021/08/22 02:51:59;;;;;;;;;;;17.40;99.90;;;;;;4972653;28;20392;-82
2021/08/22 02:54:25;;;;;;;;;;;17.40;99.90;;;;;;4990052;28;20004;-82
2021/08/22 02:56:51;;;;;;;;;;;17.40;99.90;;;;;;4964994;28;19922;-82
2021/08/22 02:59:17;;;;;;;;;;;17.30;99.90;;;;;;4946210;28;19926;-82
2021/08/22 03:01:43;;;;;;;;;;;17.30;99.90;;;;;;4989652;28;20000;-82
2021/08/22 03:04:08;;;;;;;;;;;17.30;99.90;;;;;;4977414;28;19921;-82
2021/08/22 03:06:34;;;;;;;;;;;17.30;99.90;;;;;;4962680;28;19925;-83
2021/08/22 03:09:02;;;;;;;;;;;17.20;99.90;;;;;;4972230;28;19922;-82
2021/08/22 03:11:29;;;;;;;;;;;17.20;99.90;;;;;;4971753;28;19926;-82
2021/08/22 03:13:54;;;;;;;;;;;17.20;99.90;;;;;;4969867;28;20415;-82
2021/08/22 03:16:20;;;;;;;;;;;17.20;99.90;;;;;;4957759;28;19926;-82
2021/08/22 03:18:46;;;;;;;;;;;17.10;99.90;;;;;;4987288;28;19929;-82
2021/08/22 03:21:12;;;;;;;;;;;17.10;99.90;;;;;;4966330;28;19930;-82
2021/08/22 03:23:38;;;;;;;;;;;17.20;99.90;;;;;;4966226;28;19929;-82
2021/08/22 03:26:03;;;;;;;;;;;17.20;99.90;;;;;;4982054;28;20429;-82
2021/08/22 03:28:29;;;;;;;;;;;17.20;99.90;;;;;;4972067;28;19948;-82
2021/08/22 03:30:55;;;;;;;;;;;17.20;99.90;;;;;;4988749;28;19922;-82
2021/08/22 03:33:21;;;;;;;;;;;17.20;99.90;;;;;;4971843;28;20341;-82
2021/08/22 03:35:47;;;;;;;;;;;17.20;99.90;;;;;;4972254;28;19933;-82
2021/08/22 03:38:13;;;;;;;;;;;17.20;99.90;;;;;;4954234;28;20377;-82
2021/08/22 03:40:39;;;;;;;;;;;17.20;99.90;;;;;;4970122;28;19926;-82
2021/08/22 03:43:05;;;;;;;;;;;17.10;99.90;;;;;;4955854;28;19925;-82
2021/08/22 03:45:31;;;;;;;;;;;17.10;99.90;;;;;;4971727;28;19976;-82
2021/08/22 03:47:57;;;;;;;;;;;17.10;99.90;;;;;;4956757;28;19922;-82
2021/08/22 03:50:22;;;;;;;;;;;17.10;99.90;;;;;;4934054;28;20306;-82
2021/08/22 03:52:51;;;;;;;;;;;17.10;99.90;;;;;;4952244;28;20326;-82
2021/08/22 03:55:17;;;;;;;;;;;17.00;99.90;;;;;;4966314;28;20420;-82
2021/08/22 03:57:42;;;;;;;;;;;17.00;99.90;;;;;;4959874;28;19962;-83
2021/08/22 04:00:09;;;;;;;;;;;17.00;99.90;;;;;;4947415;28;20434;-82
2021/08/22 04:02:35;;;;;;;;;;;16.90;99.90;;;;;;4965688;28;19948;-83
2021/08/22 04:05:02;;;;;;;;;;;16.90;99.90;;;;;;4961171;28;20386;-82
2021/08/22 04:07:30;;;;;;;;;;;16.90;99.90;;;;;;4956480;28;19926;-83
2021/08/22 04:09:56;;;;;;;;;;;16.90;99.90;;;;;;4940069;28;19979;-83
2021/08/22 04:12:25;;;;;;;;;;;16.80;99.90;;;;;;4943139;28;19937;-83
2021/08/22 04:14:51;;;;;;;;;;;17.60;99.90;;;;;;4969949;28;19930;-83
2021/08/22 04:17:17;;;;;;;;;;;17.00;99.90;;;;;;4964464;28;19922;-83
2021/08/22 04:19:43;;;;;;;;;;;16.80;99.90;;;;;;4966827;28;19953;-83
2021/08/22 04:22:09;;;;;;;;;;;16.80;99.90;;;;;;4956345;28;20008;-83
2021/08/22 04:24:35;;;;;;;;;;;17.10;99.90;;;;;;4984108;28;19969;-82
2021/08/22 04:27:01;;;;;;;;;;;16.80;99.90;;;;;;4966386;28;20008;-83
2021/08/22 04:29:28;;;;;;;;;;;16.80;99.90;;;;;;4968005;28;19922;-83
2021/08/22 04:31:54;;;;;;;;;;;17.20;99.90;;;;;;4968909;28;19926;-83
2021/08/22 04:34:20;;;;;;;;;;;16.90;99.90;;;;;;4963966;28;20464;-83
2021/08/22 04:36:47;;;;;;;;;;;17.10;99.90;;;;;;4959556;28;19973;-83
2021/08/22 04:39:13;;;;;;;;;;;16.90;99.90;;;;;;4944052;29;20012;-83
2021/08/22 04:41:42;;;;;;;;;;;16.90;99.90;;;;;;4980040;28;19926;-83
2021/08/22 04:44:08;;;;;;;;;;;17.10;99.90;;;;;;4957816;28;20360;-83
2021/08/22 04:46:34;;;;;;;;;;;17.00;99.90;;;;;;4963190;28;20498;-83
2021/08/22 04:49:02;;;;;;;;;;;17.20;99.90;;;;;;4955691;28;20309;-83
2021/08/22 04:51:28;;;;;;;;;;;16.90;99.90;;;;;;4954065;28;20536;-83
2021/08/22 04:53:54;;;;;;;;;;;17.00;99.90;;;;;;4964092;28;20373;-83
2021/08/22 04:56:19;;;;;;;;;;;17.00;99.90;;;;;;4954271;28;19926;-83
2021/08/22 04:58:46;;;;;;;;;;;17.00;99.90;;;;;;4945841;28;19922;-83
2021/08/22 05:01:12;;;;;;;;;;;17.00;99.90;;;;;;4954310;28;20470;-83
2021/08/22 05:03:38;;;;;;;;;;;17.00;99.90;;;;;;4964779;28;19926;-82
2021/08/22 05:06:04;;;;;;;;;;;17.00;99.90;;;;;;4970421;28;20404;-83
2021/08/22 05:08:30;;;;;;;;;;;17.20;99.90;;;;;;4963598;28;20024;-83
2021/08/22 05:10:55;;;;;;;;;;;17.10;99.90;;;;;;4967880;28;20005;-83
2021/08/22 05:13:22;;;;;;;;;;;17.00;99.90;;;;;;4948330;28;19926;-83
2021/08/22 05:15:50;;;;;;;;;;;16.90;99.90;;;;;;4947853;28;19930;-83
2021/08/22 05:18:17;;;;;;;;;;;17.20;99.90;;;;;;4947534;28;20072;-83
2021/08/22 05:20:42;;;;;;;;;;;16.90;99.90;;;;;;4948552;28;19954;-83
2021/08/22 05:23:08;;;;;;;;;;;16.90;99.90;;;;;;4947564;28;19986;-83
2021/08/22 05:25:34;;;;;;;;;;;16.90;99.90;;;;;;4962679;28;19933;-83
2021/08/22 05:28:00;;;;;;;;;;;17.00;99.90;;;;;;4945632;28;19962;-83
2021/08/22 05:30:26;;;;;;;;;;;16.90;99.90;;;;;;4961158;28;19972;-83
2021/08/22 05:32:52;;;;;;;;;;;17.20;99.90;;;;;;4962335;28;19922;-83
2021/08/22 05:35:18;;;;;;;;;;;17.10;99.90;;;;;;4960216;28;19937;-83
2021/08/22 05:37:43;;;;;;;;;;;17.00;99.90;;;;;;4965320;28;20398;-83
2021/08/22 05:40:09;;;;;;;;;;;17.10;99.90;;;;;;4965120;28;20069;-83
2021/08/22 05:42:35;;;;;;;;;;;16.90;99.90;;;;;;4965508;28;19968;-83
2021/08/22 05:45:01;;;;;;;;;;;16.90;99.90;;;;;;4966935;28;19926;-83
2021/08/22 05:47:27;;;;;;;;;;;17.10;99.90;;;;;;4949076;28;20504;-83
2021/08/22 05:49:54;;;;;;;;;;;16.90;99.90;;;;;;4966785;28;20394;-83
2021/08/22 05:52:21;;;;;;;;;;;17.20;99.90;;;;;;4965334;28;19926;-83
2021/08/22 05:54:47;;;;;;;;;;;16.90;99.90;;;;;;4959788;28;19933;-83
2021/08/22 05:57:12;;;;;;;;;;;17.10;99.90;;;;;;4966193;28;19966;-83
2021/08/22 05:59:38;;;;;;;;;;;17.10;99.90;;;;;;4960211;28;19932;-83
2021/08/22 06:02:04;;;;;;;;;;;17.20;99.90;;;;;;4954582;28;20338;-83
2021/08/22 06:04:31;;;;;;;;;;;17.10;99.90;;;;;;4966209;28;20797;-84
2021/08/22 06:06:57;;;;;;;;;;;17.00;99.90;;;;;;4935864;28;19930;-83
2021/08/22 06:09:23;;;;;;;;;;;17.10;99.90;;;;;;4943708;28;19927;-84
2021/08/22 06:11:49;;;;;;;;;;;17.00;99.90;;;;;;4975343;28;20294;-83
2021/08/22 06:14:15;;;;;;;;;;;17.10;99.90;;;;;;4969065;28;20017;-83
2021/08/22 06:16:41;;;;;;;;;;;16.90;99.90;;;;;;4970340;28;20450;-83
2021/08/22 06:19:08;;;;;;;;;;;16.80;99.90;;;;;;4970665;28;20037;-83
2021/08/22 06:21:34;;;;;;;;;;;17.10;99.90;;;;;;4945244;28;20420;-83
2021/08/22 06:24:00;;;;;;;;;;;17.10;99.90;;;;;;4962982;28;19933;-83
2021/08/22 06:26:27;;;;;;;;;;;17.10;99.90;;;;;;4935459;28;19926;-83
2021/08/22 06:28:53;;;;;;;;;;;17.10;99.90;;;;;;4951891;28;19934;-83
2021/08/22 06:31:19;;;;;;;;;;;16.90;99.90;;;;;;4952501;28;19997;-83
2021/08/22 06:33:45;;;;;;;;;;;17.00;99.90;;;;;;4962728;28;20389;-84
2021/08/22 06:36:12;;;;;;;;;;;17.00;99.90;;;;;;4969573;28;20300;-83
2021/08/22 06:38:38;;;;;;;;;;;17.10;99.90;;;;;;4960245;28;19977;-83
2021/08/22 06:41:05;;;;;;;;;;;17.10;99.90;;;;;;4959823;28;19926;-83
2021/08/22 06:43:31;;;;;;;;;;;17.20;99.90;;;;;;4955841;28;19926;-83
2021/08/22 06:45:57;;;;;;;;;;;17.00;99.90;;;;;;4969688;28;20361;-83
2021/08/22 06:48:23;;;;;;;;;;;17.00;99.90;;;;;;4969497;28;19934;-83
2021/08/22 06:50:49;;;;;;;;;;;17.20;99.90;;;;;;4953458;28;19926;-83
2021/08/22 06:53:15;;;;;;;;;;;17.00;99.90;;;;;;4969402;28;20126;-84
2021/08/22 06:55:41;;;;;;;;;;;17.00;99.90;;;;;;4953509;28;19961;-83
2021/08/22 06:58:07;;;;;;;;;;;17.30;99.90;;;;;;4936996;28;20025;-84
2021/08/22 07:00:33;;;;;;;;;;;17.20;99.90;;;;;;4953427;28;20407;-83
2021/08/22 07:02:59;;;;;;;;;;;17.30;99.90;;;;;;4970578;28;19961;-84
2021/08/22 07:05:25;;;;;;;;;;;17.30;99.90;;;;;;4968115;28;19965;-84
2021/08/22 07:07:52;;;;;;;;;;;17.30;99.90;;;;;;4968852;28;20395;-83
2021/08/22 07:10:18;;;;;;;;;;;17.10;99.90;;;;;;4975263;28;19925;-84
2021/08/22 07:12:43;;;;;;;;;;;17.30;99.90;;;;;;4935221;28;19951;-84
2021/08/22 07:15:11;;;;;;;;;;;17.00;99.90;;;;;;4950358;28;19981;-84
2021/08/22 07:17:37;;;;;;;;;;;17.30;99.90;;;;;;4948654;28;19930;-84
2021/08/22 07:20:03;;;;;;;;;;;17.10;99.90;;;;;;4948917;28;20437;-84
2021/08/22 07:22:29;;;;;;;;;;;17.30;99.90;;;;;;4961609;28;19934;-84
2021/08/22 07:24:56;;;;;;;;;;;17.30;99.90;;;;;;4942682;28;20541;-84
2021/08/22 07:27:22;;;;;;;;;;;17.00;99.90;;;;;;4952529;28;19926;-83
2021/08/22 07:29:48;;;;;;;;;;;17.10;99.90;;;;;;4968877;28;20377;-83
2021/08/22 07:32:14;;;;;;;;;;;17.20;99.90;;;;;;4951651;28;19941;-84
2021/08/22 07:34:39;;;;;;;;;;;17.30;99.90;;;;;;4956814;28;20463;-84
2021/08/22 07:37:05;;;;;;;;;;;17.10;99.90;;;;;;4961736;28;19929;-84
2021/08/22 07:39:31;;;;;;;;;;;17.40;99.90;;;;;;4964508;28;19997;-83
2021/08/22 07:42:07;;;;;;;;;;;17.20;99.90;;;;;;4949545;28;20366;-84
2021/08/22 07:44:33;;;;;;;;;;;17.20;99.90;;;;;;4956909;28;19932;-83
2021/08/22 07:46:58;;;;;;;;;;;17.20;99.90;;;;;;4951293;28;19926;-84
2021/08/22 07:49:24;;;;;;;;;;;17.30;99.90;;;;;;4967754;28;19930;-84
2021/08/22 07:51:50;;;;;;;;;;;17.10;99.90;;;;;;4965718;28;20057;-84
2021/08/22 07:54:16;;;;;;;;;;;17.20;99.90;;;;;;4955242;28;20390;-84
2021/08/22 07:56:42;;;;;;;;;;;17.30;99.90;;;;;;4959195;28;19945;-85
2021/08/22 07:59:08;;;;;;;;;;;17.30;99.90;;;;;;4945389;28;19926;-80
2021/08/22 08:01:34;;;;;;;;;;;17.50;99.90;;;;;;4963528;28;19984;-82
2021/08/22 08:04:03;;;;;;;;;;;17.50;99.90;;;;;;4965359;28;19937;-83
2021/08/22 08:06:32;;;;;;;;;;;17.60;99.90;;;;;;4968022;28;19926;-84
2021/08/22 08:08:59;;;;;;;;;;;17.60;99.90;;;;;;4964205;28;20441;-84
2021/08/22 08:11:24;;;;;;;;;;;17.50;99.90;;;;;;4966369;28;19925;-83
2021/08/22 08:13:50;;;;;;;;;;;17.60;99.90;;;;;;4964132;28;20440;-84
2021/08/22 08:16:16;;;;;;;;;;;17.60;99.90;;;;;;4935320;28;19926;-84
2021/08/22 08:18:42;;;;;;;;;;;17.70;99.90;;;;;;4953269;28;20441;-84
2021/08/22 08:21:11;;;;;;;;;;;17.50;99.90;;;;;;4968061;28;19926;-84
2021/08/22 08:23:37;;;;;;;;;;;17.60;99.90;;;;;;4953588;28;19932;-84
2021/08/22 08:26:03;;;;;;;;;;;17.70;99.90;;;;;;4950358;28;19934;-84
2021/08/22 08:28:29;;;;;;;;;;;17.70;99.90;;;;;;4958253;28;19957;-84
2021/08/22 08:30:54;;;;;;;;;;;17.40;99.90;;;;;;4942360;28;19932;-84
2021/08/22 08:33:20;;;;;;;;;;;17.60;99.90;;;;;;4953094;28;19967;-84
2021/08/22 08:35:46;;;;;;;;;;;17.50;99.90;;;;;;4937503;28;19933;-85
2021/08/22 08:38:12;;;;;;;;;;;17.70;99.90;;;;;;4950375;28;19929;-84
2021/08/22 08:40:39;;;;;;;;;;;17.40;99.90;;;;;;4958643;28;19959;-83
2021/08/22 08:43:05;;;;;;;;;;;17.70;99.90;;;;;;4954997;28;19933;-84
2021/08/22 08:46:00;;;;;;;;;;;17.70;99.90;;;;;;4949938;28;19926;-83
2021/08/22 08:48:27;;;;;;;;;;;17.50;99.90;;;;;;4949205;28;19977;-84
2021/08/22 08:50:52;;;;;;;;;;;17.50;99.90;;;;;;4948797;28;19926;-84
2021/08/22 08:53:20;;;;;;;;;;;17.60;99.90;;;;;;4951996;28;20028;-83
2021/08/22 08:55:47;;;;;;;;;;;17.60;99.90;;;;;;4970628;28;21168;-83
2021/08/22 08:58:12;;;;;;;;;;;17.50;99.90;;;;;;4952497;28;19933;-83
2021/08/22 09:00:39;;;;;;;;;;;17.60;99.90;;;;;;4947892;28;19926;-83
2021/08/22 09:03:05;;;;;;;;;;;17.70;99.90;;;;;;4950824;28;19926;-83
2021/08/22 09:05:50;;;;;;;;;;;17.70;99.90;;;;;;4951817;28;19981;-83
2021/08/22 09:08:25;;;;;;;;;;;17.70;99.90;;;;;;4948640;28;20021;-83
2021/08/22 09:11:10;;;;;;;;;;;17.60;99.90;;;;;;4946507;28;19926;-83
2021/08/22 09:13:55;;;;;;;;;;;17.50;99.90;;;;;;4951932;28;20025;-84
2021/08/22 09:16:44;;;;;;;;;;;17.50;99.90;;;;;;4955543;28;20664;-84
2021/08/22 09:19:29;;;;;;;;;;;17.80;99.90;;;;;;4948261;28;20013;-83
2021/08/22 09:22:13;;;;;;;;;;;17.60;99.90;;;;;;4959974;28;20644;-83
2021/08/22 09:24:57;;;;;;;;;;;17.60;99.90;;;;;;4952096;28;19928;-83
2021/08/22 09:27:42;;;;;;;;;;;17.70;99.90;;;;;;4955503;28;19928;-83
2021/08/22 09:30:16;;;;;;;;;;;17.90;99.90;;;;;;4952923;28;19930;-84
2021/08/22 09:33:02;;;;;;;;;;;17.80;99.90;;;;;;4949260;28;19923;-84
2021/08/22 09:35:55;;;;;;;;;;;17.70;99.90;;;;;;4951859;28;19936;-83
2021/08/22 09:38:40;;;;;;;;;;;17.60;99.90;;;;;;4972460;28;20409;-82
2021/08/22 09:41:45;;;;;;;;;;;17.60;99.90;;;;;;4955865;28;19964;-83
2021/08/22 09:44:48;;;;;;;;;;;17.60;99.90;;;;;;4947406;28;19922;-82
2021/08/22 09:47:29;;;;;;;;;;;17.80;99.90;;;;;;4925942;28;19953;-83
2021/08/22 09:50:13;;;;;;;;;;;17.60;99.90;;;;;;4957072;28;19937;-82
2021/08/22 09:52:58;;;;;;;;;;;17.60;99.90;;;;;;4972415;28;19922;-82
2021/08/22 09:55:35;;;;;;;;;;;17.60;99.90;;;;;;4972943;28;19933;-83
2021/08/22 09:58:20;;;;;;;;;;;17.80;99.90;;;;;;4967002;28;19992;-82
2021/08/22 10:01:04;;;;;;;;;;;17.90;99.90;;;;;;4952437;28;19942;-84
2021/08/22 10:03:49;;;;;;;;;;;17.70;99.90;;;;;;4970686;28;20393;-83
2021/08/22 10:06:34;;;;;;;;;;;17.80;99.90;;;;;;4969122;28;19929;-84
2021/08/22 10:09:00;;;;;;;;;;;18.00;99.90;;;;;;4971816;28;20455;-83
2021/08/22 10:11:38;;;;;;;;;;;18.10;99.90;;;;;;4971895;28;20054;-83
2021/08/22 10:14:08;;;;;;;;;;;17.90;99.90;;;;;;4957649;28;19933;-83
2021/08/22 10:16:34;;;;;;;;;;;17.90;99.90;;;;;;4973577;28;19968;-83
2021/08/22 10:19:04;;;;;;;;;;;17.90;99.90;;;;;;4973271;28;19965;-83
2021/08/22 10:21:30;;;;;;;;;;;17.90;99.90;;;;;;4965537;28;20300;-83
2021/08/22 10:23:58;;;;;;;;;;;18.10;99.90;;;;;;4971724;28;19926;-88
2021/08/22 10:26:42;;;;;;;;;;;18.20;99.90;;;;;;4969576;28;19926;-87
2021/08/22 10:29:09;;;;;;;;;;;18.00;99.90;;;;;;4972003;28;19976;-87
2021/08/22 10:35:21;;;;;;;;;;;18.20;99.90;;;;;;4969117;28;20358;-88
2021/08/22 10:37:47;;;;;;;;;;;18.20;99.90;;;;;;4971858;28;19922;-88
2021/08/22 10:40:25;;;;;;;;;;;18.30;99.90;;;;;;4972921;28;19929;-88
2021/08/22 10:42:57;;;;;;;;;;;18.20;99.90;;;;;;4986508;28;19948;-87
2021/08/22 10:45:42;;;;;;;;;;;18.40;99.90;;;;;;4972523;28;19991;-88
2021/08/22 10:48:08;;;;;;;;;;;18.20;99.90;;;;;;4957170;28;19925;-87
2021/08/22 10:51:09;;;;;;;;;;;18.30;99.90;;;;;;4973708;28;20045;-88
2021/08/22 10:53:36;;;;;;;;;;;18.10;99.90;;;;;;4946797;29;20401;-87
2021/08/22 10:56:20;;;;;;;;;;;18.10;99.90;;;;;;4979486;28;19933;-87
2021/08/22 10:58:55;;;;;;;;;;;18.20;99.90;;;;;;4968126;28;20016;-88
2021/08/22 11:01:21;;;;;;;;;;;18.20;99.90;;;;;;4971456;28;20282;-88
2021/08/22 11:04:06;;;;;;;;;;;18.40;99.90;;;;;;4968337;28;19922;-88
2021/08/22 11:06:33;;;;;;;;;;;18.30;99.90;;;;;;4987203;28;19977;-88
2021/08/22 11:08:59;;;;;;;;;;;18.20;99.90;;;;;;4971468;28;19972;-88
2021/08/22 11:11:25;;;;;;;;;;;18.20;99.90;;;;;;4956978;28;19926;-88
2021/08/22 11:19:42;;;;;;;;;;;18.10;99.90;;;;;;5013724;28;20132;-87
2021/08/22 11:22:25;;;;;;;;;;;17.90;99.90;;;;;;5018325;28;19933;-87
2021/08/22 11:24:52;;;;;;;;;;;17.90;99.90;;;;;;5016806;28;19988;-88
2021/08/22 11:27:19;;;;;;;;;;;18.00;99.90;;;;;;5011443;28;20432;-87
2021/08/22 11:29:55;;;;;;;;;;;18.00;99.90;;;;;;5020339;28;19925;-87
2021/08/22 11:32:21;;;;;;;;;;;18.00;99.90;;;;;;5039984;28;19926;-88
2021/08/22 11:34:47;;;;;;;;;;;17.80;99.90;;;;;;5009819;28;20285;-88
2021/08/22 11:37:16;;;;;;;;;;;18.00;99.90;;;;;;5008667;28;19932;-87
2021/08/22 11:39:42;;;;;;;;;;;18.00;99.90;;;;;;5009970;28;19929;-88
2021/08/22 11:42:08;;;;;;;;;;;17.90;99.90;;;;;;5010029;28;20257;-88
2021/08/22 11:44:34;;;;;;;;;;;17.80;99.90;;;;;;5009579;28;19926;-88
2021/08/22 11:47:00;;;;;;;;;;;17.80;99.90;;;;;;4976376;28;20906;-88
2021/08/22 11:49:26;;;;;;;;;;;17.90;99.90;;;;;;5010329;28;20349;-88
2021/08/22 11:51:53;;;;;;;;;;;17.80;99.90;;;;;;4992964;28;19925;-88
2021/08/22 11:54:19;;;;;;;;;;;18.00;99.90;;;;;;5010234;28;20009;-88
2021/08/22 11:56:45;;;;;;;;;;;17.90;99.90;;;;;;5009662;28;19925;-88
2021/08/22 11:59:26;;;;;;;;;;;17.80;99.90;;;;;;5009115;28;19921;-88
2021/08/22 12:02:11;;;;;;;;;;;17.80;99.90;;;;;;5009530;28;20385;-89
2021/08/22 12:04:37;;;;;;;;;;;17.70;99.90;;;;;;5011508;28;20365;-88
2021/08/22 12:07:03;;;;;;;;;;;17.80;99.90;;;;;;4991569;28;19936;-88
2021/08/22 12:09:29;;;;;;;;;;;17.90;99.90;;;;;;5005566;28;19921;-89
2021/08/22 12:11:55;;;;;;;;;;;17.80;99.90;;;;;;5009966;28;20282;-88
2021/08/22 12:14:20;;;;;;;;;;;17.70;99.90;;;;;;4993352;28;19921;-88
2021/08/22 12:16:56;;;;;;;;;;;17.70;99.90;;;;;;5009562;28;19952;-88
2021/08/22 12:19:25;;;;;;;;;;;17.50;99.90;;;;;;5005337;28;20012;-88
2021/08/22 12:22:07;;;;;;;;;;;17.70;99.90;;;;;;5006728;28;19925;-88
2021/08/22 12:24:33;;;;;;;;;;;17.60;99.90;;;;;;4990731;28;20348;-89
2021/08/22 12:27:00;;;;;;;;;;;17.70;99.90;;;;;;5008836;28;20012;-88
2021/08/22 12:29:26;;;;;;;;;;;17.40;99.90;;;;;;5008573;28;20476;-88
2021/08/22 12:31:55;;;;;;;;;;;17.60;99.90;;;;;;5008833;28;20024;-89
2021/08/22 12:34:21;;;;;;;;;;;17.50;99.90;;;;;;5007478;28;19926;-88
2021/08/22 12:36:47;;;;;;;;;;;17.60;99.90;;;;;;5007328;28;20023;-88
2021/08/22 12:39:17;;;;;;;;;;;17.70;99.90;;;;;;5007058;28;19937;-88
2021/08/22 12:41:44;;;;;;;;;;;17.70;99.90;;;;;;5008565;28;19926;-88
2021/08/22 12:44:11;;;;;;;;;;;17.60;99.90;;;;;;5027262;28;19926;-88
2021/08/22 12:46:37;;;;;;;;;;;17.50;99.90;;;;;;5008634;28;20373;-88
2021/08/22 12:49:04;;;;;;;;;;;17.60;99.90;;;;;;5008776;28;19921;-88
2021/08/22 12:51:30;;;;;;;;;;;17.70;99.90;;;;;;5022220;28;20409;-88
2021/08/22 12:53:56;;;;;;;;;;;17.70;99.90;;;;;;5007528;28;19928;-87
2021/08/22 12:56:22;;;;;;;;;;;17.40;99.90;;;;;;4990595;28;19930;-87
2021/08/22 12:58:50;;;;;;;;;;;17.70;99.90;;;;;;5008422;28;19925;-87
2021/08/22 13:01:40;;;;;;;;;;;17.50;99.90;;;;;;5007500;28;20306;-91
2021/08/22 13:04:08;;;;;;;;;;;17.60;99.90;;;;;;4976494;28;19925;-86
2021/08/22 13:06:34;;;;;;;;;;;17.50;99.90;;;;;;4988996;28;20383;-90
2021/08/22 13:09:01;;;;;;;;;;;17.60;99.90;;;;;;4989439;28;19929;-90
2021/08/22 13:11:27;;;;;;;;;;;17.70;99.90;;;;;;5006818;28;20451;-88
2021/08/22 13:13:55;;;;;;;;;;;17.50;99.90;;;;;;5004006;28;20436;-88
2021/08/22 13:16:21;;;;;;;;;;;17.60;99.90;;;;;;4997961;28;19930;-88
2021/08/22 13:18:47;;;;;;;;;;;17.70;99.90;;;;;;4979837;28;19932;-88
2021/08/22 13:23:46;;;;;;;;;;;17.70;99.90;;;;;;5071420;22;19929;-88
2021/08/22 13:26:12;;;;;;;;;;;17.90;99.90;;;;;;5027081;28;19986;-86
2021/08/22 13:28:38;;;;;;;;;;;17.80;99.90;;;;;;5005565;28;19932;-85
2021/08/22 13:31:04;;;;;;;;;;;17.90;99.90;;;;;;4995113;28;20372;-85
2021/08/22 13:33:30;;;;;;;;;;;18.20;99.90;;;;;;4994782;28;20273;-85
2021/08/22 13:35:56;;;;;;;;;;;18.20;99.90;;;;;;5026607;28;19920;-86
2021/08/22 13:38:22;;;;;;;;;;;18.40;99.90;;;;;;5025113;28;20330;-87
2021/08/22 13:40:48;;;;;;;;;;;18.50;99.90;;;;;;5009883;28;20298;-87
2021/08/22 13:43:14;;;;;;;;;;;18.40;99.90;;;;;;5027029;28;19928;-86
2021/08/22 13:45:40;;;;;;;;;;;18.60;99.90;;;;;;5009912;28;19931;-85
2021/08/22 13:48:06;;;;;;;;;;;18.70;99.90;;;;;;5040780;28;20319;-84
2021/08/22 13:50:32;;;;;;;;;;;18.70;99.90;;;;;;5025341;28;19936;-86
2021/08/22 13:52:59;;;;;;;;;;;18.70;99.90;;;;;;5025068;28;19935;-84
2021/08/22 13:55:25;;;;;;;;;;;18.80;99.90;;;;;;5025637;28;19956;-84
2021/08/22 13:57:50;;;;;;;;;;;18.80;99.90;;;;;;5035727;28;19920;-84
2021/08/22 14:00:16;;;;;;;;;;;18.70;99.90;;;;;;5027470;28;19925;-84
2021/08/22 14:02:42;;;;;;;;;;;18.80;99.90;;;;;;4994907;28;19967;-84
2021/08/22 14:05:08;;;;;;;;;;;18.80;99.90;;;;;;5026420;28;19929;-84
2021/08/22 14:07:34;;;;;;;;;;;19.00;99.90;;;;;;5015803;28;19936;-84
2021/08/22 14:10:00;;;;;;;;;;;18.80;99.90;;;;;;5014273;28;19929;-84
2021/08/22 14:12:26;;;;;;;;;;;18.90;99.90;;;;;;5019662;28;20375;-86
2021/08/22 14:14:51;;;;;;;;;;;18.80;99.90;;;;;;5016814;28;19928;-86
2021/08/22 14:17:17;;;;;;;;;;;18.80;99.90;;;;;;5017040;28;19927;-84
2021/08/22 14:19:46;;;;;;;;;;;18.90;99.90;;;;;;5050605;28;19929;-85
2021/08/22 14:22:12;;;;;;;;;;;18.90;99.90;;;;;;5032574;28;19920;-85
2021/08/22 14:24:38;;;;;;;;;;;18.80;99.90;;;;;;5012301;28;20394;-85
2021/08/22 14:27:03;;;;;;;;;;;19.00;99.90;;;;;;5015344;28;19928;-85
2021/08/22 14:29:29;;;;;;;;;;;18.90;99.90;;;;;;5014216;28;19928;-89
2021/08/22 14:31:56;;;;;;;;;;;18.80;99.90;;;;;;5038619;28;19924;-91
2021/08/22 14:34:24;;;;;;;;;;;18.90;99.90;;;;;;5028711;28;19925;-91
2021/08/22 14:36:53;;;;;;;;;;;18.70;99.90;;;;;;5028613;28;20399;-93